createdAt,value
2016-12-01T00:00:26.794Z,81.98
2016-12-01T00:00:54.517Z,82.27
2016-12-01T00:01:22.206Z,82.08
2016-12-01T00:01:49.898Z,81.79
2016-12-01T00:02:17.603Z,81.6
2016-12-01T00:02:45.324Z,81.6
2016-12-01T00:03:13.028Z,81.7
2016-12-01T00:03:40.754Z,81.79
2016-12-01T00:04:08.429Z,81.6
2016-12-01T00:04:36.110Z,81.7
2016-12-01T00:05:03.888Z,81.7
2016-12-01T00:05:31.592Z,81.7
2016-12-01T00:05:59.271Z,81.12
2016-12-01T00:06:26.938Z,81.31
2016-12-01T00:06:54.695Z,81.79
2016-12-01T00:07:22.379Z,81.79
2016-12-01T00:07:50.080Z,81.41
2016-12-01T00:08:17.788Z,81.41
2016-12-01T00:08:45.513Z,81.41
2016-12-01T00:09:13.401Z,80.83
2016-12-01T00:09:41.087Z,81.22
2016-12-01T00:10:08.887Z,80.83
2016-12-01T00:10:36.589Z,81.6
2016-12-01T00:11:04.308Z,81.31
2016-12-01T00:11:31.988Z,81.02
2016-12-01T00:11:59.647Z,81.02
2016-12-01T00:12:27.336Z,81.02
2016-12-01T00:12:54.995Z,81.12
2016-12-01T00:13:22.794Z,81.12
2016-12-01T00:13:50.477Z,80.74
2016-12-01T00:14:18.180Z,80.93
2016-12-01T00:14:45.897Z,80.93
2016-12-01T00:15:13.587Z,80.74
2016-12-01T00:15:41.276Z,81.02
2016-12-01T00:16:09.078Z,80.93
2016-12-01T00:16:36.786Z,80.83
2016-12-01T00:17:04.482Z,80.93
2016-12-01T00:17:32.359Z,80.16
2016-12-01T00:18:00.183Z,80.16
2016-12-01T00:18:27.984Z,80.45
2016-12-01T00:18:55.653Z,80.64
2016-12-01T00:19:23.339Z,80.64
2016-12-01T00:19:51.062Z,80.07
2016-12-01T00:20:18.743Z,80.26
2016-12-01T00:20:46.434Z,80.55
2016-12-01T00:21:14.130Z,80.16
2016-12-01T00:21:41.845Z,80.45
2016-12-01T00:22:09.531Z,80.55
2016-12-01T00:22:37.264Z,80.55
2016-12-01T00:23:04.957Z,80.55
2016-12-01T00:23:32.669Z,79.88
2016-12-01T00:24:00.373Z,79.78
2016-12-01T00:24:28.157Z,79.68
2016-12-01T00:24:55.869Z,79.59
2016-12-01T00:25:23.572Z,80.07
2016-12-01T00:25:51.306Z,79.88
2016-12-01T00:26:19.029Z,79.88
2016-12-01T00:26:46.705Z,79.68
2016-12-01T00:27:14.403Z,80.07
2016-12-01T00:27:42.064Z,79.49
2016-12-01T00:28:09.759Z,79.39
2016-12-01T00:28:37.537Z,79.59
2016-12-01T00:29:05.215Z,79.88
2016-12-01T00:29:32.915Z,80.07
2016-12-01T00:30:00.576Z,79.97
2016-12-01T00:30:28.386Z,80.07
2016-12-01T00:30:56.078Z,79.59
2016-12-01T00:31:23.774Z,79.59
2016-12-01T00:31:51.458Z,79.88
2016-12-01T00:32:19.251Z,80.35
2016-12-01T00:32:47.057Z,80.12
2016-12-01T00:33:14.855Z,79.83
2016-12-01T00:33:42.540Z,80.35
2016-12-01T00:34:10.237Z,79.97
2016-12-01T00:34:38.023Z,79.97
2016-12-01T00:35:05.699Z,79.88
2016-12-01T00:35:33.392Z,80.07
2016-12-01T00:36:01.074Z,79.39
2016-12-01T00:36:28.743Z,79.68
2016-12-01T00:36:56.541Z,79.88
2016-12-01T00:37:24.224Z,79.88
2016-12-01T00:37:51.913Z,79.97
2016-12-01T00:38:19.616Z,80.45
2016-12-01T00:38:47.314Z,79.97
2016-12-01T00:39:14.999Z,80.07
2016-12-01T00:39:42.702Z,79.88
2016-12-01T00:40:10.406Z,80.26
2016-12-01T00:40:38.121Z,79.97
2016-12-01T00:41:05.851Z,79.97
2016-12-01T00:41:33.536Z,80.07
2016-12-01T00:42:01.204Z,79.68
2016-12-01T00:42:29.076Z,79.68
2016-12-01T00:42:56.741Z,79.16
2016-12-01T00:43:24.437Z,79.59
2016-12-01T00:43:52.235Z,79.21
2016-12-01T00:44:19.941Z,79.68
2016-12-01T00:44:47.660Z,79.83
2016-12-01T00:45:15.334Z,80.03
2016-12-01T00:45:43.010Z,79.36
2016-12-01T00:46:10.723Z,79.45
2016-12-01T00:46:38.379Z,79.45
2016-12-01T00:47:06.091Z,79.55
2016-12-01T00:47:33.868Z,79.93
2016-12-01T00:48:01.583Z,79.74
2016-12-01T00:48:29.273Z,80.03
2016-12-01T00:48:57.075Z,80.03
2016-12-01T00:49:24.750Z,80.6
2016-12-01T00:49:52.413Z,80.22
2016-12-01T00:50:20.134Z,80.41
2016-12-01T00:50:47.809Z,79.93
2016-12-01T00:51:15.514Z,79.74
2016-12-01T00:51:43.210Z,80.03
2016-12-01T00:52:10.896Z,80.03
2016-12-01T00:52:38.569Z,79.55
2016-12-01T00:53:06.281Z,80.03
2016-12-01T00:53:34.055Z,80.03
2016-12-01T00:54:01.836Z,79.55
2016-12-01T00:54:29.571Z,80.03
2016-12-01T00:54:57.346Z,79.74
2016-12-01T00:55:25.032Z,80.51
2016-12-01T00:55:52.716Z,80.6
2016-12-01T00:56:20.444Z,80.6
2016-12-01T00:56:48.156Z,80.6
2016-12-01T00:57:15.842Z,80.32
2016-12-01T00:57:43.523Z,79.93
2016-12-01T00:58:11.325Z,80.7
2016-12-01T00:58:38.993Z,80.22
2016-12-01T00:59:06.677Z,80.12
2016-12-01T00:59:34.336Z,80.12
2016-12-01T01:00:02.141Z,80.03
2016-12-01T01:00:29.853Z,80.22
2016-12-01T01:00:57.523Z,80.22
2016-12-01T01:01:25.329Z,80.22
2016-12-01T01:01:53.014Z,80.41
2016-12-01T01:02:20.689Z,80.41
2016-12-01T01:02:48.408Z,80.12
2016-12-01T01:03:16.107Z,80.41
2016-12-01T01:03:43.809Z,80.22
2016-12-01T01:04:11.539Z,79.83
2016-12-01T01:04:39.223Z,80.03
2016-12-01T01:05:06.966Z,79.93
2016-12-01T01:05:34.637Z,79.93
2016-12-01T01:06:02.388Z,80.41
2016-12-01T01:06:30.100Z,79.93
2016-12-01T01:06:57.828Z,79.93
2016-12-01T01:07:25.535Z,80.03
2016-12-01T01:07:53.279Z,79.74
2016-12-01T01:08:21.079Z,80.03
2016-12-01T01:08:48.885Z,79.16
2016-12-01T01:09:16.584Z,79.55
2016-12-01T01:09:44.397Z,79.64
2016-12-01T01:10:12.068Z,79.83
2016-12-01T01:10:39.781Z,79.74
2016-12-01T01:11:07.571Z,79.83
2016-12-01T01:11:35.291Z,79.55
2016-12-01T01:12:02.972Z,79.83
2016-12-01T01:12:30.637Z,79.64
2016-12-01T01:12:58.338Z,80.51
2016-12-01T01:13:26.126Z,80.32
2016-12-01T01:13:53.828Z,80.22
2016-12-01T01:14:21.511Z,79.83
2016-12-01T01:14:49.182Z,80.6
2016-12-01T01:15:16.849Z,80.12
2016-12-01T01:15:44.527Z,80.51
2016-12-01T01:16:12.214Z,80.32
2016-12-01T01:16:39.888Z,80.03
2016-12-01T01:17:07.576Z,80.03
2016-12-01T01:17:35.264Z,80.22
2016-12-01T01:18:02.942Z,80.6
2016-12-01T01:18:30.646Z,80.51
2016-12-01T01:18:58.361Z,80.12
2016-12-01T01:19:26.122Z,80.32
2016-12-01T01:19:53.800Z,80.41
2016-12-01T01:20:21.563Z,80.12
2016-12-01T01:20:49.243Z,80.22
2016-12-01T01:21:16.929Z,80.41
2016-12-01T01:21:44.596Z,80.6
2016-12-01T01:22:12.292Z,80.51
2016-12-01T01:22:39.985Z,80.32
2016-12-01T01:23:07.690Z,80.32
2016-12-01T01:23:35.375Z,80.41
2016-12-01T01:24:03.075Z,80.41
2016-12-01T01:24:30.806Z,80.51
2016-12-01T01:24:58.500Z,80.51
2016-12-01T01:25:26.232Z,81.08
2016-12-01T01:25:53.943Z,80.79
2016-12-01T01:26:21.640Z,80.79
2016-12-01T01:26:49.341Z,81.08
2016-12-01T01:27:17.043Z,80.22
2016-12-01T01:27:44.771Z,80.79
2016-12-01T01:28:12.454Z,80.12
2016-12-01T01:28:40.308Z,80.32
2016-12-01T01:29:08.023Z,80.12
2016-12-01T01:29:35.738Z,80.6
2016-12-01T01:30:03.414Z,80.12
2016-12-01T01:30:31.074Z,80.32
2016-12-01T01:30:58.790Z,80.12
2016-12-01T01:31:26.573Z,80.03
2016-12-01T01:31:54.292Z,79.93
2016-12-01T01:32:21.964Z,79.93
2016-12-01T01:32:49.677Z,80.03
2016-12-01T01:33:17.363Z,80.03
2016-12-01T01:33:45.050Z,80.03
2016-12-01T01:34:12.742Z,80.03
2016-12-01T01:34:40.439Z,79.93
2016-12-01T01:35:08.119Z,80.6
2016-12-01T01:35:35.797Z,80.32
2016-12-01T01:36:03.486Z,80.41
2016-12-01T01:36:31.183Z,80.32
2016-12-01T01:36:58.859Z,80.41
2016-12-01T01:37:26.565Z,80.32
2016-12-01T01:37:54.295Z,80.51
2016-12-01T01:38:22.012Z,80.99
2016-12-01T01:38:49.702Z,80.79
2016-12-01T01:39:17.384Z,80.99
2016-12-01T01:39:45.067Z,80.7
2016-12-01T01:40:12.780Z,81.27
2016-12-01T01:40:40.481Z,81.27
2016-12-01T01:41:08.159Z,81.85
2016-12-01T01:41:35.851Z,81.75
2016-12-01T01:42:03.529Z,80.79
2016-12-01T01:42:31.231Z,81.08
2016-12-01T01:42:58.920Z,81.46
2016-12-01T01:43:26.691Z,81.95
2016-12-01T01:43:54.384Z,81.95
2016-12-01T01:44:22.079Z,81.85
2016-12-01T01:44:49.768Z,80.89
2016-12-01T01:45:17.465Z,80.99
2016-12-01T01:45:45.155Z,80.89
2016-12-01T01:46:12.871Z,80.89
2016-12-01T01:46:40.542Z,81.18
2016-12-01T01:47:08.344Z,81.08
2016-12-01T01:47:36.047Z,81.18
2016-12-01T01:48:03.752Z,81.18
2016-12-01T01:48:31.440Z,80.99
2016-12-01T01:48:59.239Z,81.08
2016-12-01T01:49:26.933Z,80.99
2016-12-01T01:49:54.726Z,81.08
2016-12-01T01:50:22.420Z,81.18
2016-12-01T01:50:50.110Z,81.18
2016-12-01T01:51:17.850Z,80.79
2016-12-01T01:51:45.615Z,80.89
2016-12-01T01:52:13.307Z,81.27
2016-12-01T01:52:40.979Z,81.46
2016-12-01T01:53:08.791Z,81.18
2016-12-01T01:53:36.481Z,81.95
2016-12-01T01:54:04.166Z,81.75
2016-12-01T01:54:31.848Z,81.66
2016-12-01T01:54:59.555Z,81.75
2016-12-01T01:55:27.232Z,81.46
2016-12-01T01:55:54.922Z,81.56
2016-12-01T01:56:22.621Z,81.66
2016-12-01T01:56:50.321Z,82.23
2016-12-01T01:57:18.030Z,82.42
2016-12-01T01:57:45.727Z,82.04
2016-12-01T01:58:13.416Z,81.95
2016-12-01T01:58:41.095Z,81.66
2016-12-01T01:59:08.810Z,81.85
2016-12-01T01:59:36.529Z,81.75
2016-12-01T02:00:04.215Z,81.66
2016-12-01T02:00:31.905Z,81.37
2016-12-01T02:00:59.592Z,81.75
2016-12-01T02:01:27.302Z,81.27
2016-12-01T02:01:54.977Z,81.56
2016-12-01T02:02:22.657Z,81.75
2016-12-01T02:02:50.361Z,81.37
2016-12-01T02:03:18.049Z,81.27
2016-12-01T02:03:45.744Z,81.37
2016-12-01T02:04:13.437Z,81.75
2016-12-01T02:04:41.147Z,81.66
2016-12-01T02:05:08.994Z,81.75
2016-12-01T02:05:36.803Z,81.46
2016-12-01T02:06:04.484Z,81.37
2016-12-01T02:06:32.175Z,81.75
2016-12-01T02:06:59.872Z,81.46
2016-12-01T02:07:27.560Z,81.75
2016-12-01T02:07:55.266Z,81.75
2016-12-01T02:08:22.998Z,81.56
2016-12-01T02:08:50.777Z,81.46
2016-12-01T02:09:18.473Z,81.56
2016-12-01T02:09:46.212Z,81.56
2016-12-01T02:10:13.899Z,82.04
2016-12-01T02:10:41.693Z,82.23
2016-12-01T02:11:09.415Z,82.14
2016-12-01T02:11:37.099Z,82.04
2016-12-01T02:12:04.781Z,81.95
2016-12-01T02:12:32.471Z,82.32
2016-12-01T02:13:00.185Z,82.52
2016-12-01T02:13:27.869Z,82.14
2016-12-01T02:13:55.568Z,82.42
2016-12-01T02:14:23.276Z,82.52
2016-12-01T02:14:50.986Z,82.32
2016-12-01T02:15:18.762Z,82.71
2016-12-01T02:15:46.458Z,82.81
2016-12-01T02:16:14.139Z,83
2016-12-01T02:16:41.844Z,82.71
2016-12-01T02:17:09.546Z,82.71
2016-12-01T02:17:37.238Z,82.81
2016-12-01T02:18:04.886Z,82.81
2016-12-01T02:18:32.605Z,83.48
2016-12-01T02:19:00.326Z,83.29
2016-12-01T02:19:28.114Z,83.38
2016-12-01T02:19:55.821Z,83.53
2016-12-01T02:20:23.525Z,83.44
2016-12-01T02:20:51.210Z,83.15
2016-12-01T02:21:18.889Z,83.15
2016-12-01T02:21:46.624Z,83.34
2016-12-01T02:22:14.318Z,83.86
2016-12-01T02:22:42.086Z,83.29
2016-12-01T02:23:09.764Z,83.58
2016-12-01T02:23:37.853Z,83.48
2016-12-01T02:24:05.638Z,83.58
2016-12-01T02:24:33.405Z,83.29
2016-12-01T02:25:01.123Z,83.92
2016-12-01T02:25:28.791Z,83.48
2016-12-01T02:25:56.488Z,83.95
2016-12-01T02:26:24.178Z,83.58
2016-12-01T02:26:51.952Z,83.58
2016-12-01T02:27:19.672Z,83.53
2016-12-01T02:27:47.321Z,83.38
2016-12-01T02:28:15.033Z,83.48
2016-12-01T02:28:43.005Z,83.38
2016-12-01T02:29:10.698Z,83.67
2016-12-01T02:29:38.378Z,83.86
2016-12-01T02:30:06.079Z,83.38
2016-12-01T02:30:33.774Z,83.19
2016-12-01T02:31:01.571Z,83.48
2016-12-01T02:31:29.356Z,83.58
2016-12-01T02:31:57.055Z,83.58
2016-12-01T02:32:24.723Z,83.48
2016-12-01T02:32:52.421Z,82.81
2016-12-01T02:33:20.108Z,82.81
2016-12-01T02:33:47.787Z,83.19
2016-12-01T02:34:15.499Z,82.71
2016-12-01T02:34:43.262Z,82.71
2016-12-01T02:35:11.063Z,83.09
2016-12-01T02:35:38.743Z,82.9
2016-12-01T02:36:06.435Z,82.9
2016-12-01T02:36:34.121Z,83.09
2016-12-01T02:37:01.809Z,83.48
2016-12-01T02:37:29.496Z,82.9
2016-12-01T02:37:57.174Z,83.29
2016-12-01T02:38:24.886Z,83.38
2016-12-01T02:38:52.568Z,83.48
2016-12-01T02:39:20.255Z,83.38
2016-12-01T02:39:47.951Z,83.48
2016-12-01T02:40:15.731Z,83.29
2016-12-01T02:40:43.439Z,82.9
2016-12-01T02:41:11.141Z,83.19
2016-12-01T02:41:38.813Z,83.48
2016-12-01T02:42:06.477Z,83.19
2016-12-01T02:42:34.243Z,83.48
2016-12-01T02:43:01.918Z,83.29
2016-12-01T02:43:29.599Z,82.9
2016-12-01T02:43:57.294Z,82.9
2016-12-01T02:44:24.968Z,82.9
2016-12-01T02:44:52.653Z,82.9
2016-12-01T02:45:20.345Z,83.09
2016-12-01T02:45:48.059Z,82.9
2016-12-01T02:46:15.841Z,82.71
2016-12-01T02:46:43.567Z,82.81
2016-12-01T02:47:11.329Z,82.52
2016-12-01T02:47:39.012Z,82.81
2016-12-01T02:48:06.668Z,83.09
2016-12-01T02:48:34.337Z,83.09
2016-12-01T02:49:02.012Z,83.09
2016-12-01T02:49:29.698Z,82.71
2016-12-01T02:49:57.488Z,82.9
2016-12-01T02:50:25.287Z,82.32
2016-12-01T02:50:53.065Z,82.32
2016-12-01T02:51:20.755Z,82.42
2016-12-01T02:51:48.436Z,82.32
2016-12-01T02:52:16.176Z,82.71
2016-12-01T02:52:43.854Z,82.9
2016-12-01T02:53:11.521Z,82.9
2016-12-01T02:53:39.210Z,82.9
2016-12-01T02:54:06.928Z,82.9
2016-12-01T02:54:34.811Z,82.9
2016-12-01T02:55:02.505Z,82.9
2016-12-01T02:55:30.183Z,82.71
2016-12-01T02:55:57.916Z,82.32
2016-12-01T02:56:25.615Z,82.71
2016-12-01T02:56:53.303Z,82.71
2016-12-01T02:57:21.031Z,82.71
2016-12-01T02:57:48.777Z,82.62
2016-12-01T02:58:16.495Z,82.62
2016-12-01T02:58:44.293Z,82.71
2016-12-01T02:59:11.976Z,82.32
2016-12-01T02:59:39.665Z,82.71
2016-12-01T03:00:07.441Z,82.52
2016-12-01T03:00:36.249Z,82.71
2016-12-01T03:01:03.955Z,82.23
2016-12-01T03:01:31.632Z,82.42
2016-12-01T03:01:59.311Z,82.32
2016-12-01T03:02:27.095Z,82.52
2016-12-01T03:02:54.979Z,82.42
2016-12-01T03:03:22.687Z,82.42
2016-12-01T03:03:50.413Z,82.52
2016-12-01T03:04:18.210Z,82.32
2016-12-01T03:04:45.888Z,82.32
2016-12-01T03:05:13.578Z,82.52
2016-12-01T03:05:41.394Z,82.32
2016-12-01T03:06:09.158Z,82.14
2016-12-01T03:06:36.853Z,82.32
2016-12-01T03:07:04.553Z,82.32
2016-12-01T03:07:32.236Z,82.52
2016-12-01T03:08:00.008Z,82.52
2016-12-01T03:08:27.698Z,82.62
2016-12-01T03:08:55.372Z,82.52
2016-12-01T03:09:23.151Z,82.71
2016-12-01T03:09:50.849Z,81.95
2016-12-01T03:10:18.531Z,82.14
2016-12-01T03:10:46.215Z,82.32
2016-12-01T03:11:13.893Z,82.62
2016-12-01T03:11:41.584Z,81.95
2016-12-01T03:12:09.367Z,81.85
2016-12-01T03:12:37.032Z,82.32
2016-12-01T03:13:04.745Z,82.04
2016-12-01T03:13:32.445Z,82.42
2016-12-01T03:14:00.133Z,82.04
2016-12-01T03:14:27.824Z,82.04
2016-12-01T03:14:55.520Z,82.14
2016-12-01T03:15:23.326Z,82.52
2016-12-01T03:15:51.002Z,82.14
2016-12-01T03:16:18.733Z,82.32
2016-12-01T03:16:46.404Z,82.32
2016-12-01T03:17:14.172Z,82.32
2016-12-01T03:17:41.887Z,82.14
2016-12-01T03:18:09.572Z,82.81
2016-12-01T03:18:37.460Z,82.71
2016-12-01T03:19:05.145Z,82.52
2016-12-01T03:19:32.832Z,82.32
2016-12-01T03:20:00.552Z,82.71
2016-12-01T03:20:28.345Z,82.62
2016-12-01T03:20:56.120Z,82.52
2016-12-01T03:21:23.832Z,82.32
2016-12-01T03:21:51.559Z,83
2016-12-01T03:22:19.240Z,82.62
2016-12-01T03:22:46.935Z,82.14
2016-12-01T03:23:14.624Z,82.9
2016-12-01T03:23:42.312Z,82.71
2016-12-01T03:24:09.998Z,82.62
2016-12-01T03:24:37.698Z,82.9
2016-12-01T03:25:05.373Z,82.04
2016-12-01T03:25:33.061Z,82.14
2016-12-01T03:26:00.748Z,82.14
2016-12-01T03:26:28.414Z,82.32
2016-12-01T03:26:56.071Z,82.42
2016-12-01T03:27:23.771Z,82.42
2016-12-01T03:27:51.447Z,82.32
2016-12-01T03:28:19.188Z,82.62
2016-12-01T03:28:46.912Z,82.23
2016-12-01T03:29:14.586Z,82.71
2016-12-01T03:29:42.245Z,82.32
2016-12-01T03:30:10.034Z,82.71
2016-12-01T03:30:37.715Z,82.81
2016-12-01T03:31:05.509Z,82.71
2016-12-01T03:31:33.213Z,82.62
2016-12-01T03:32:00.943Z,82.71
2016-12-01T03:32:28.643Z,82.52
2016-12-01T03:32:56.436Z,82.62
2016-12-01T03:33:24.124Z,82.62
2016-12-01T03:33:51.830Z,83.09
2016-12-01T03:34:19.545Z,83.19
2016-12-01T03:34:47.232Z,82.9
2016-12-01T03:35:14.953Z,82.9
2016-12-01T03:35:42.670Z,83.38
2016-12-01T03:36:10.460Z,82.62
2016-12-01T03:36:38.118Z,82.62
2016-12-01T03:37:05.809Z,83.38
2016-12-01T03:37:33.470Z,83.19
2016-12-01T03:38:01.147Z,83.48
2016-12-01T03:38:28.824Z,83.48
2016-12-01T03:38:56.527Z,83.48
2016-12-01T03:39:24.208Z,83.38
2016-12-01T03:39:51.866Z,83.19
2016-12-01T03:40:19.647Z,83.38
2016-12-01T03:40:47.316Z,83.58
2016-12-01T03:41:14.989Z,83.58
2016-12-01T03:41:42.684Z,83.38
2016-12-01T03:42:10.367Z,83.38
2016-12-01T03:42:38.053Z,83.09
2016-12-01T03:43:05.744Z,82.71
2016-12-01T03:43:33.428Z,82.81
2016-12-01T03:44:01.117Z,83.29
2016-12-01T03:44:28.812Z,83.48
2016-12-01T03:44:56.503Z,83.48
2016-12-01T03:45:24.273Z,83.48
2016-12-01T03:45:52.100Z,83.38
2016-12-01T03:46:19.820Z,82.81
2016-12-01T03:46:47.519Z,82.9
2016-12-01T03:47:15.209Z,83.19
2016-12-01T03:47:42.893Z,83.38
2016-12-01T03:48:10.557Z,83.19
2016-12-01T03:48:38.237Z,83.29
2016-12-01T03:49:05.923Z,83.38
2016-12-01T03:49:33.623Z,83.38
2016-12-01T03:50:01.313Z,83.29
2016-12-01T03:50:29.087Z,83.29
2016-12-01T03:50:56.762Z,82.71
2016-12-01T03:51:24.456Z,83
2016-12-01T03:51:52.154Z,83.38
2016-12-01T03:52:19.855Z,83.19
2016-12-01T03:52:47.537Z,83.48
2016-12-01T03:53:15.216Z,83.29
2016-12-01T03:53:42.901Z,83.48
2016-12-01T03:54:10.565Z,83.67
2016-12-01T03:54:38.329Z,83.48
2016-12-01T03:55:06.024Z,83.38
2016-12-01T03:55:33.816Z,83.67
2016-12-01T03:56:01.506Z,83.58
2016-12-01T03:56:29.180Z,83.58
2016-12-01T03:56:56.892Z,83.58
2016-12-01T03:57:24.584Z,83.29
2016-12-01T03:57:52.281Z,83.38
2016-12-01T03:58:19.967Z,83.76
2016-12-01T03:58:47.676Z,83.76
2016-12-01T03:59:15.392Z,83.95
2016-12-01T03:59:43.073Z,83.67
2016-12-01T04:00:10.747Z,83.58
2016-12-01T04:00:38.452Z,83.86
2016-12-01T04:01:06.228Z,83.76
2016-12-01T04:01:33.907Z,84.05
2016-12-01T04:02:01.651Z,83.67
2016-12-01T04:02:29.323Z,83.48
2016-12-01T04:02:57.110Z,83.38
2016-12-01T04:03:24.793Z,84.34
2016-12-01T04:03:52.497Z,83.38
2016-12-01T04:04:20.257Z,83.95
2016-12-01T04:04:47.961Z,83.58
2016-12-01T04:05:15.728Z,83.67
2016-12-01T04:05:43.407Z,83.95
2016-12-01T04:06:11.104Z,83.67
2016-12-01T04:06:38.761Z,83.76
2016-12-01T04:07:06.442Z,84.15
2016-12-01T04:07:34.210Z,83.86
2016-12-01T04:08:01.918Z,83.86
2016-12-01T04:08:29.588Z,84.05
2016-12-01T04:08:57.260Z,83.95
2016-12-01T04:09:24.996Z,83.95
2016-12-01T04:09:52.680Z,83.58
2016-12-01T04:10:20.361Z,83.86
2016-12-01T04:10:48.049Z,84.05
2016-12-01T04:11:15.712Z,83.76
2016-12-01T04:11:43.410Z,84.15
2016-12-01T04:12:11.157Z,83.76
2016-12-01T04:12:38.831Z,83.58
2016-12-01T04:13:06.531Z,83.86
2016-12-01T04:13:34.419Z,83.76
2016-12-01T04:14:02.105Z,83.76
2016-12-01T04:14:29.784Z,83.86
2016-12-01T04:14:57.463Z,83.58
2016-12-01T04:15:25.185Z,83.38
2016-12-01T04:15:52.960Z,83.48
2016-12-01T04:16:20.653Z,83.58
2016-12-01T04:16:48.400Z,83.48
2016-12-01T04:17:16.103Z,83.19
2016-12-01T04:17:43.790Z,83.29
2016-12-01T04:18:11.521Z,83.58
2016-12-01T04:18:39.223Z,83.38
2016-12-01T04:19:06.947Z,83.76
2016-12-01T04:19:34.664Z,83.38
2016-12-01T04:20:02.336Z,83.95
2016-12-01T04:20:30.021Z,83.29
2016-12-01T04:20:57.707Z,83.38
2016-12-01T04:21:25.419Z,83.38
2016-12-01T04:21:53.098Z,83.38
2016-12-01T04:22:20.770Z,83.38
2016-12-01T04:22:48.531Z,83.48
2016-12-01T04:23:16.200Z,83.67
2016-12-01T04:23:43.912Z,83.76
2016-12-01T04:24:11.583Z,83.58
2016-12-01T04:24:39.291Z,83.38
2016-12-01T04:25:06.969Z,83.38
2016-12-01T04:25:34.673Z,84.15
2016-12-01T04:26:02.348Z,83.86
2016-12-01T04:26:30.032Z,83.86
2016-12-01T04:26:57.719Z,83.58
2016-12-01T04:27:25.532Z,83.95
2016-12-01T04:27:53.244Z,84.05
2016-12-01T04:28:20.939Z,83.86
2016-12-01T04:28:48.627Z,83.38
2016-12-01T04:29:16.318Z,83.58
2016-12-01T04:29:44.031Z,83.58
2016-12-01T04:30:11.735Z,83.58
2016-12-01T04:30:39.430Z,84.05
2016-12-01T04:31:07.106Z,83.95
2016-12-01T04:31:34.775Z,83.86
2016-12-01T04:32:02.484Z,83.67
2016-12-01T04:32:30.172Z,84.15
2016-12-01T04:32:57.881Z,84.25
2016-12-01T04:33:25.604Z,83.86
2016-12-01T04:33:53.276Z,83.86
2016-12-01T04:34:20.963Z,83.58
2016-12-01T04:34:48.674Z,83.76
2016-12-01T04:35:16.419Z,84.34
2016-12-01T04:35:44.117Z,83.95
2016-12-01T04:36:11.814Z,83.95
2016-12-01T04:36:39.583Z,83.76
2016-12-01T04:37:07.301Z,83.86
2016-12-01T04:37:34.995Z,83.86
2016-12-01T04:38:02.707Z,83.86
2016-12-01T04:38:30.398Z,83.76
2016-12-01T04:38:58.094Z,83.58
2016-12-01T04:39:25.783Z,84.01
2016-12-01T04:39:53.498Z,84.34
2016-12-01T04:40:21.220Z,83.86
2016-12-01T04:40:48.882Z,83.82
2016-12-01T04:41:16.591Z,83.76
2016-12-01T04:41:44.312Z,84.34
2016-12-01T04:42:12.001Z,83.95
2016-12-01T04:42:39.683Z,83.63
2016-12-01T04:43:07.398Z,83.72
2016-12-01T04:43:35.080Z,83.86
2016-12-01T04:44:02.790Z,83.86
2016-12-01T04:44:30.486Z,84.3
2016-12-01T04:44:58.187Z,83.86
2016-12-01T04:45:25.965Z,83.95
2016-12-01T04:45:53.649Z,84.05
2016-12-01T04:46:21.368Z,84.25
2016-12-01T04:46:49.073Z,83.86
2016-12-01T04:47:16.750Z,83.95
2016-12-01T04:47:44.460Z,84.01
2016-12-01T04:48:12.169Z,84.34
2016-12-01T04:48:39.912Z,84.25
2016-12-01T04:49:07.580Z,83.92
2016-12-01T04:49:35.320Z,83.86
2016-12-01T04:50:03.113Z,83.92
2016-12-01T04:50:30.813Z,83.58
2016-12-01T04:50:58.604Z,83.76
2016-12-01T04:51:26.317Z,83.76
2016-12-01T04:51:53.995Z,83.76
2016-12-01T04:52:21.716Z,84.11
2016-12-01T04:52:49.432Z,84.2
2016-12-01T04:53:17.126Z,84.15
2016-12-01T04:53:44.830Z,84.25
2016-12-01T04:54:12.508Z,84.2
2016-12-01T04:54:40.199Z,83.95
2016-12-01T04:55:07.935Z,84.01
2016-12-01T04:55:35.611Z,84.2
2016-12-01T04:56:03.302Z,84.11
2016-12-01T04:56:31.004Z,83.72
2016-12-01T04:56:58.722Z,83.95
2016-12-01T04:57:26.399Z,83.95
2016-12-01T04:57:54.072Z,84.25
2016-12-01T04:58:21.775Z,84.44
2016-12-01T04:58:49.453Z,83.76
2016-12-01T04:59:17.254Z,84.25
2016-12-01T04:59:44.926Z,84.63
2016-12-01T05:00:12.673Z,83.58
2016-12-01T05:00:40.409Z,83.67
2016-12-01T05:01:08.106Z,83.95
2016-12-01T05:01:35.780Z,84.05
2016-12-01T05:02:03.453Z,84.15
2016-12-01T05:02:31.145Z,83.58
2016-12-01T05:02:58.847Z,84.05
2016-12-01T05:03:26.618Z,83.95
2016-12-01T05:03:54.430Z,83.67
2016-12-01T05:04:22.132Z,83.48
2016-12-01T05:04:49.829Z,83.76
2016-12-01T05:05:17.512Z,83.95
2016-12-01T05:05:45.307Z,83.58
2016-12-01T05:06:12.998Z,83.76
2016-12-01T05:06:40.703Z,83.86
2016-12-01T05:07:08.401Z,83.76
2016-12-01T05:07:36.082Z,83.95
2016-12-01T05:08:03.770Z,83.76
2016-12-01T05:08:31.440Z,83.95
2016-12-01T05:08:59.113Z,84.53
2016-12-01T05:09:26.797Z,84.53
2016-12-01T05:09:54.476Z,83.58
2016-12-01T05:10:22.171Z,83.86
2016-12-01T05:10:49.866Z,83.86
2016-12-01T05:11:17.559Z,83.58
2016-12-01T05:11:45.234Z,83.82
2016-12-01T05:12:12.898Z,83.86
2016-12-01T05:12:40.588Z,83.86
2016-12-01T05:13:08.290Z,83.67
2016-12-01T05:13:36.094Z,83.76
2016-12-01T05:14:03.891Z,84.44
2016-12-01T05:14:31.542Z,83.76
2016-12-01T05:14:59.197Z,83.86
2016-12-01T05:15:26.870Z,83.76
2016-12-01T05:15:54.763Z,83.86
2016-12-01T05:16:22.568Z,83.95
2016-12-01T05:16:50.261Z,83.76
2016-12-01T05:17:17.957Z,83.29
2016-12-01T05:17:45.716Z,83.95
2016-12-01T05:18:13.515Z,83.95
2016-12-01T05:18:41.222Z,83.67
2016-12-01T05:19:08.916Z,83.58
2016-12-01T05:19:36.576Z,83.72
2016-12-01T05:20:04.268Z,83.48
2016-12-01T05:20:31.973Z,83.63
2016-12-01T05:20:59.647Z,83.58
2016-12-01T05:21:27.318Z,83.76
2016-12-01T05:21:55.034Z,83.67
2016-12-01T05:22:22.713Z,83.76
2016-12-01T05:22:50.415Z,83.58
2016-12-01T05:23:18.113Z,83.58
2016-12-01T05:23:45.778Z,83.76
2016-12-01T05:24:13.484Z,83.58
2016-12-01T05:24:41.164Z,83.19
2016-12-01T05:25:08.839Z,83.38
2016-12-01T05:25:36.540Z,83.38
2016-12-01T05:26:04.255Z,83.38
2016-12-01T05:26:31.965Z,83.19
2016-12-01T05:26:59.650Z,83.29
2016-12-01T05:27:27.341Z,83.38
2016-12-01T05:27:55.072Z,83.29
2016-12-01T05:28:22.769Z,82.9
2016-12-01T05:28:50.485Z,82.71
2016-12-01T05:29:18.159Z,83.29
2016-12-01T05:29:46.018Z,83.38
2016-12-01T05:30:13.801Z,82.9
2016-12-01T05:30:41.494Z,83.48
2016-12-01T05:31:09.179Z,83.48
2016-12-01T05:31:36.853Z,83.19
2016-12-01T05:32:04.536Z,83.38
2016-12-01T05:32:32.388Z,83.58
2016-12-01T05:33:00.184Z,83.76
2016-12-01T05:33:27.894Z,83.48
2016-12-01T05:33:55.584Z,83.58
2016-12-01T05:34:23.275Z,83.86
2016-12-01T05:34:51.071Z,83.48
2016-12-01T05:35:18.749Z,83.76
2016-12-01T05:35:46.531Z,83.29
2016-12-01T05:36:14.217Z,83.48
2016-12-01T05:36:41.898Z,83.86
2016-12-01T05:37:09.601Z,83.29
2016-12-01T05:37:37.307Z,83.29
2016-12-01T05:38:04.985Z,83.48
2016-12-01T05:38:32.894Z,83
2016-12-01T05:39:00.564Z,82.42
2016-12-01T05:39:28.356Z,82.32
2016-12-01T05:39:56.042Z,82.71
2016-12-01T05:40:23.734Z,82.9
2016-12-01T05:40:51.440Z,82.62
2016-12-01T05:41:19.216Z,82.81
2016-12-01T05:41:46.893Z,83.29
2016-12-01T05:42:14.552Z,83.19
2016-12-01T05:42:42.258Z,83.58
2016-12-01T05:43:09.954Z,83.19
2016-12-01T05:43:37.659Z,83.19
2016-12-01T05:44:05.351Z,83.29
2016-12-01T05:44:33.069Z,83.19
2016-12-01T05:45:00.762Z,83.67
2016-12-01T05:45:28.548Z,83.76
2016-12-01T05:45:56.244Z,83.95
2016-12-01T05:46:23.900Z,83.76
2016-12-01T05:46:51.592Z,83.95
2016-12-01T05:47:19.291Z,83.95
2016-12-01T05:47:46.978Z,83.48
2016-12-01T05:48:14.740Z,83.48
2016-12-01T05:48:42.450Z,82.62
2016-12-01T05:49:10.255Z,82.14
2016-12-01T05:49:37.973Z,82.32
2016-12-01T05:50:05.660Z,82.32
2016-12-01T05:50:33.349Z,82.9
2016-12-01T05:51:01.077Z,82.81
2016-12-01T05:51:28.782Z,82.71
2016-12-01T05:51:56.672Z,82.81
2016-12-01T05:52:24.370Z,82.71
2016-12-01T05:52:52.038Z,82.9
2016-12-01T05:53:19.716Z,83.58
2016-12-01T05:53:47.440Z,83.38
2016-12-01T05:54:15.140Z,83.48
2016-12-01T05:54:42.880Z,83.48
2016-12-01T05:55:10.559Z,83.38
2016-12-01T05:55:38.291Z,83.38
2016-12-01T05:56:05.984Z,83.19
2016-12-01T05:56:33.698Z,83.38
2016-12-01T05:57:01.395Z,83.48
2016-12-01T05:57:29.090Z,83.48
2016-12-01T05:57:56.753Z,83.58